Cape Newenham, Alaska
Current Conditions -  °F | °C
As of 10:55 PM on Sunday 23 Nov 2014 (Local Time) from PAEH Reporting Station
Overcast Overcast  
Wind Chill: 32°   Ceiling: 300
Heat Index: 32°   Visibility: 10mi
Dew Point: 32°   Wind: 0mph
Humidity: 100%   Direction: NA
Pressure: 29.51"   Gusts: NA
Location:  58.65°N, 162.06°W
Report Text: PAEH 240755Z AUTO 00000KT 10SM OVC003 00/00 A2951 RMK AO2 SLP001 T00000001
Loading
Personal Weather Stations






























Interactive Weather Map New forecast layout! Learn more

10-Day Weather Forecast

Advertisements
Track Severe Weather on mobile